METAR Data
IDs: Format: Raw Decoded Include TAF

Data at: 2109 UTC 08 Aug 2020

KCCY 082055Z AUTO 21007G15KT 10SM FEW034 BKN041 BKN048 29/23 A3000 RMK AO2
KCCY 082035Z AUTO 21010KT 10SM SCT031 30/23 A3000 RMK AO2
KCCY 082015Z AUTO 18010G18KT 10SM BKN031 BKN038 29/23 A2999 RMK AO2
KCCY 081955Z AUTO 21012G18KT 10SM BKN032 29/23 A2998 RMK AO2
KCCY 081935Z AUTO 21011G19KT 10SM SCT030 29/23 A2998 RMK AO2
KCCY 081915Z AUTO 20012G17KT 10SM BKN031 29/23 A2998 RMK AO2
KCCY 081855Z AUTO 18012KT 10SM SCT027 OVC032 28/23 A2999 RMK AO2
KCCY 081835Z AUTO 19010KT 10SM SCT024 OVC031 28/24 A2999 RMK AO2
KCCY 081815Z AUTO 20009KT 10SM OVC026 28/24 A3000 RMK AO2
KCCY 081755Z AUTO 22009KT 10SM OVC025 27/23 A3001 RMK AO2
KCCY 081735Z AUTO 21008G14KT 10SM BKN024 28/23 A3001 RMK AO2
KCCY 081715Z AUTO 20008KT 10SM OVC024 27/23 A3002 RMK AO2
KCCY 081655Z AUTO 20008KT 10SM OVC021 26/23 A3002 RMK AO2
KCCY 081635Z AUTO 21007G13KT 10SM OVC020 26/22 A3002 RMK AO2
KCCY 081615Z AUTO 22008KT 10SM OVC019 26/22 A3002 RMK AO2
KCCY 081555Z AUTO 20009G14KT 10SM OVC018 26/22 A3002 RMK AO2
KCCY 081535Z AUTO 20009G15KT 10SM SCT019 SCT025 BKN041 26/22 A3001 RMK AO2
KCCY 081515Z AUTO 19009KT 10SM FEW018 SCT024 SCT041 25/22 A3003 RMK AO2
KCCY 081455Z AUTO 20009G15KT 10SM FEW017 24/21 A3002 RMK AO2
KCCY 081435Z AUTO 19013KT 10SM FEW016 FEW041 24/21 A3002 RMK AO2
KCCY 081415Z AUTO 18009KT 10SM CLR 24/21 A3002 RMK AO2
KCCY 081355Z AUTO 18009G15KT 10SM SCT039 SCT045 23/21 A3001 RMK AO2
KCCY 081335Z AUTO 18011G17KT 10SM SCT039 BKN045 23/20 A3001 RMK AO2
KCCY 081315Z AUTO 17013KT 10SM BKN039 BKN045 22/20 A3001 RMK AO2
KCCY 081255Z AUTO 17011KT 10SM BKN037 BKN065 22/20 A3002 RMK AO2
KCCY 081235Z AUTO 17010KT 10SM BKN036 BKN065 21/20 A3002 RMK AO2
KCCY 081215Z AUTO 16009KT 10SM BKN038 OVC065 21/20 A3002 RMK AO2
KCCY 081155Z AUTO 17008KT 10SM FEW009 BKN040 OVC065 21/20 A3002 RMK AO2
KCCY 081135Z AUTO 17010KT 10SM FEW010 BKN042 OVC060 21/20 A3001 RMK AO2
KCCY 081115Z AUTO 17009KT 10SM FEW010 SCT043 OVC055 21/20 A3001 RMK AO2
KCCY 081055Z AUTO 17009KT 10SM BKN049 OVC055 21/20 A3000 RMK AO2
KCCY 081035Z AUTO 18009KT 10SM BKN046 BKN050 21/20 A2999 RMK AO2
KCCY 081015Z AUTO 17010G15KT 10SM FEW055 21/20 A2998 RMK AO2
KCCY 080955Z AUTO 17010KT 10SM BKN055 21/20 A2999 RMK AO2
KCCY 080935Z AUTO 17011KT 10SM OVC050 21/20 A2999 RMK AO2
KCCY 080915Z AUTO 17011KT 10SM OVC050 22/20 A2999 RMK AO2
KCCY 080855Z AUTO 17011G16KT 10SM OVC050 22/20 A2999 RMK AO2
KCCY 080835Z AUTO 17014KT 10SM OVC049 22/20 A2999 RMK AO2
KCCY 080815Z AUTO 17012KT 10SM OVC049 22/20 A2999 RMK AO2
KCCY 080755Z AUTO 17012KT 10SM OVC045 22/20 A2999 RMK AO2
KCCY 080735Z AUTO 18011KT 10SM OVC043 22/20 A3000 RMK AO2
KCCY 080715Z AUTO 18012G17KT 10SM SCT045 22/20 A3000 RMK AO2
KCCY 080655Z AUTO 18012KT 10SM CLR 22/20 A3000 RMK AO2
KCCY 080635Z AUTO 17014KT 10SM FEW034 22/20 A3000 RMK AO2
KCCY 080615Z AUTO 18012KT 10SM CLR 22/20 A3001 RMK AO2
KCCY 080555Z AUTO 17013G18KT 10SM CLR 22/20 A3001 RMK AO2
KCCY 080535Z AUTO 17012KT 10SM FEW041 22/20 A3001 RMK AO2
KCCY 080515Z AUTO 17013KT 10SM FEW041 22/20 A3001 RMK AO2
KCCY 080455Z AUTO 16010KT 10SM CLR 22/20 A3001 RMK AO2
KCCY 080435Z AUTO 16009G14KT 10SM CLR 22/20 A3002 RMK AO2
KCCY 080415Z AUTO 16009G14KT 10SM CLR 23/20 A3001 RMK AO2
KCCY 080355Z AUTO 16011G17KT 10SM CLR 23/20 A3001 RMK AO2
KCCY 080335Z AUTO 16012G18KT 10SM CLR 23/20 A3001 RMK AO2
KCCY 080315Z AUTO 16011G17KT 10SM CLR 23/20 A3001 RMK AO2
KCCY 080255Z AUTO 15011G18KT 10SM CLR 23/20 A3001 RMK AO2
KCCY 080235Z AUTO 15011G18KT 10SM CLR 24/20 A3000 RMK AO2
KCCY 080215Z AUTO 15012G18KT 10SM CLR 24/20 A3000 RMK AO2
KCCY 080155Z AUTO 15012G18KT 10SM CLR 24/20 A3000 RMK AO2
KCCY 080135Z AUTO 14011KT 10SM CLR 24/20 A3000 RMK AO2
KCCY 080115Z AUTO 15010KT 10SM FEW050 SCT065 SCT080 25/20 A3000 RMK AO2
KCCY 080055Z AUTO 15011G16KT 10SM SCT050 OVC060 26/20 A3001 RMK AO2
KCCY 080035Z AUTO 16012G17KT 10SM FEW046 OVC060 26/20 A3001 RMK AO2
KCCY 080015Z AUTO 15010G18KT 10SM BKN047 OVC055 26/20 A3001 RMK AO2
KCCY 072355Z AUTO 16014KT 10SM BKN050 BKN055 26/20 A3001 RMK AO2
KCCY 072335Z AUTO 15010KT 10SM SCT046 BKN055 BKN065 26/20 A3001 RMK AO2
KCCY 072315Z AUTO 16011G18KT 10SM OVC045 26/20 A3001 RMK AO2
KCCY 072255Z AUTO 17009G17KT 10SM FEW035 OVC046 27/20 A3001 RMK AO2
KCCY 072235Z AUTO 17015KT 10SM FEW036 BKN047 BKN065 28/21 A3001 RMK AO2
KCCY 072215Z AUTO 16013G22KT 10SM FEW037 SCT046 28/20 A3001 RMK AO2
KCCY 072155Z AUTO 18019KT 10SM FEW048 FEW055 28/20 A3001 RMK AO2
KCCY 072135Z AUTO 16014KT BKN044 BKN055 28/20 A3001 RMK AO2
KCCY 072115Z AUTO 16015KT 10SM BKN042 OVC047 27/19 A3002 RMK AO2
KCCY 072055Z AUTO 16015G21KT 10SM SCT039 SCT044 SCT060 28/20 A3002 RMK AO2
KCCY 072035Z AUTO 15016KT 10SM CLR 28/20 A3002 RMK AO2
KCCY 072015Z AUTO 15014KT 10SM CLR 27/20 A3003 RMK AO2
KCCY 071955Z AUTO 14015G21KT 10SM FEW038 27/20 A3003 RMK AO2
KCCY 071935Z AUTO 15012G18KT 10SM FEW038 28/20 A3003 RMK AO2
KCCY 071915Z AUTO 15014G20KT 10SM FEW037 27/20 A3004 RMK AO2
KCCY 071855Z AUTO 16011G19KT 10SM CLR 27/20 A3004 RMK AO2
KCCY 071835Z AUTO 16012G20KT 10SM CLR 27/20 A3004 RMK AO2
KCCY 071815Z AUTO 15018KT 10SM CLR 27/19 A3004 RMK AO2
KCCY 071755Z AUTO 14013G19KT 10SM CLR 26/19 A3004 RMK AO2
KCCY 071735Z AUTO 15015KT 10SM CLR 26/19 A3005 RMK AO2
KCCY 071715Z AUTO 16012G19KT 10SM SCT040 SCT048 SCT055 25/19 A3006 RMK AO2
KCCY 071655Z AUTO 15009G15KT 10SM BKN039 OVC050 24/19 A3007 RMK AO2
KCCY 071635Z AUTO 18013KT 10SM OVC039 24/18 A3007 RMK AO2
KCCY 071615Z AUTO 16011KT 10SM BKN037 OVC042 23/18 A3007 RMK AO2
KCCY 071555Z AUTO 16009G15KT 10SM BKN038 24/18 A3007 RMK AO2
KCCY 071535Z AUTO 18011KT 10SM BKN035 BKN041 23/18 A3006 RMK AO2
KCCY 071515Z AUTO 17009G17KT 10SM OVC036 22/17 A3006 RMK AO2
KCCY 071455Z AUTO 16011G17KT 10SM OVC037 22/17 A3006 RMK AO2
KCCY 071435Z AUTO 16011KT 10SM BKN038 BKN060 22/17 A3006 RMK AO2
KCCY 071415Z AUTO 16009G15KT 10SM FEW041 FEW060 21/17 A3007 RMK AO2
KCCY 071355Z AUTO 16010KT 10SM FEW038 SCT048 BKN060 20/16 A3007 RMK AO2
KCCY 071335Z AUTO 16011KT 10SM SCT037 SCT048 BKN055 20/16 A3008 RMK AO2
KCCY 071315Z AUTO 16010KT 10SM FEW037 SCT046 BKN055 19/16 A3009 RMK AO2
KCCY 071255Z AUTO 15009KT 10SM BKN046 18/16 A3008 RMK AO2
KCCY 071235Z AUTO 14009KT 10SM CLR 18/16 A3008 RMK AO2
KCCY 071215Z AUTO 14009KT 10SM CLR 17/15 A3007 RMK AO2
KCCY 071155Z AUTO 14008KT 10SM CLR 17/15 A3007 RMK AO2
KCCY 071135Z AUTO 14008KT 10SM CLR 17/15 A3007 RMK AO2
KCCY 071115Z AUTO 14007KT 10SM FEW095 17/15 A3008 RMK AO2
KCCY 071055Z AUTO 14007KT 10SM CLR 17/15 A3007 RMK AO2
KCCY 071035Z AUTO 14008KT 10SM FEW110 17/15 A3007 RMK AO2
KCCY 071015Z AUTO 14007KT 10SM CLR 17/16 A3007 RMK AO2
KCCY 070955Z AUTO 15007G12KT 10SM SCT050 18/16 A3007 RMK AO2
KCCY 070935Z AUTO 15007KT 10SM FEW040 BKN050 18/16 A3007 RMK AO2
KCCY 070915Z AUTO 15008KT 10SM BKN040 18/16 A3007 RMK AO2